Groton, MA

9:46 AM EDT on April 27, 2015 (GMT -0400)
Groton Road | | Change Station
CLOSE
Current Station
Personal Weather Station
Location: Tyngsboro, MA
Elevation: 279 ft
Nearby Weather Stations

Elev 279 ft 42.64 °N, 71.49 °W | Updated 1 minute ago

Overcast
Overcast
52.9 °F
Feels Like 52.9 °F
N
1.0
Wind Variable Wind from East
Gusts 5.0 mph

Today
High -- | Low -- °F
--% Chance of Precip.
Yesterday
High -- | Low -- °F
Precip. -- in
5:46 AM 7:41 PM
Waxing Gibbous, 65% visible
Pressure 30.33 in
Visibility 10.0 miles
Clouds Mostly Cloudy 3300 ft
Dew Point 39 °F
Humidity 59%
Rainfall 0.00 in
Snow Depth Not available.
UV 2 out of 12
Pollen 9.20 out of 12
Air Quality Not available.
Flu Activity Widespread
METAR KASH 271251Z 31011G17KT 10SM BKN033 11/02 A2960 RMK AO2 T01050022 BKN V SCT SLP271 $

More Conditions Fewer Conditions

Pressure 30.33 in
Visibility 10.0 miles
Clouds Mostly Cloudy 3300 ft
Dew Point 39 °F
Humidity 59%
Rainfall 0.00 in
Snow Depth Not available.
UV 2 out of 12
Pollen 9.20 out of 12
Air Quality Not available.
Flu Activity Widespread
METAR KASH 271251Z 31011G17KT 10SM BKN033 11/02 A2960 RMK AO2 T01050022 BKN V SCT SLP271 $

More Conditions Fewer Conditions

10-Day Weather Forecast

Almanac

Astronomy

Apr. 27, 2015 Rise Set
Actual Time
Civil Twilight
Nautical Twilight
Astronomical Twilight
Moon
Length of Visible Light
Length of Day
Tomorrow will be .
, % of the Moon is Illuminated

Today's Extremes

State Highs State Lows

Community

WunderPhotos

Upload Photos

1,817,309 photos uploaded!

WunderBlogs® & News

Nearby

Air Quality

  Air Quality AQ Index Pollutant
Not available.

Snow Depth

Station Depth Elevation

Earthquake Activity

City Distance Mag. Time & Date
Minimum magnitude displayed is 2.5.

Coastal Water Temperatures

Place Temperature

Stations

Nearby Weather Stations

Station Location Temp. Windchill Dew Point Humidity Wind Precip. Elev Updated Type